sensor_id;sensor_type;location;lat;lon;timestamp;pressure;altitude;pressure_sealevel;temperature;humidity
42105;BME280;68365;51.472;5.712;2023-04-04T00:02:12;102725.19;;;15.32;100.00
42105;BME280;68365;51.472;5.712;2023-04-04T00:04:38;102720.47;;;15.36;100.00
42105;BME280;68365;51.472;5.712;2023-04-04T00:07:03;102726.69;;;15.35;100.00
42105;BME280;68365;51.472;5.712;2023-04-04T00:09:29;102732.06;;;15.33;100.00
42105;BME280;68365;51.472;5.712;2023-04-04T00:11:55;102731.38;;;15.31;100.00
42105;BME280;68365;51.472;5.712;2023-04-04T00:14:21;102738.41;;;15.31;100.00
42105;BME280;68365;51.472;5.712;2023-04-04T00:16:47;102734.56;;;15.25;100.00
42105;BME280;68365;51.472;5.712;2023-04-04T00:19:13;102744.88;;;15.26;100.00
42105;BME280;68365;51.472;5.712;2023-04-04T00:21:43;102736.34;;;15.24;100.00
42105;BME280;68365;51.472;5.712;2023-04-04T00:24:10;102743.38;;;15.24;100.00
42105;BME280;68365;51.472;5.712;2023-04-04T00:26:36;102745.16;;;15.23;100.00
42105;BME280;68365;51.472;5.712;2023-04-04T00:29:02;102738.53;;;15.19;100.00
42105;BME280;68365;51.472;5.712;2023-04-04T00:31:28;102725.06;;;15.14;100.00
42105;BME280;68365;51.472;5.712;2023-04-04T00:33:54;102745.44;;;15.20;100.00
42105;BME280;68365;51.472;5.712;2023-04-04T00:36:19;102731.94;;;15.15;100.00
42105;BME280;68365;51.472;5.712;2023-04-04T00:38:45;102730.31;;;15.14;100.00
42105;BME280;68365;51.472;5.712;2023-04-04T00:41:11;102721.91;;;15.11;100.00
42105;BME280;68365;51.472;5.712;2023-04-04T00:43:37;102733.88;;;15.13;100.00
42105;BME280;68365;51.472;5.712;2023-04-04T00:46:03;102742.41;;;15.15;100.00
42105;BME280;68365;51.472;5.712;2023-04-04T00:48:29;102740.09;;;15.12;100.00
42105;BME280;68365;51.472;5.712;2023-04-04T00:50:55;102739.28;;;15.12;100.00
42105;BME280;68365;51.472;5.712;2023-04-04T00:53:21;102735.13;;;15.09;100.00
42105;BME280;68365;51.472;5.712;2023-04-04T00:55:47;102740.34;;;15.09;100.00
42105;BME280;68365;51.472;5.712;2023-04-04T00:58:13;102739.16;;;15.03;100.00
42105;BME280;68365;51.472;5.712;2023-04-04T01:00:39;102730.63;;;15.01;100.00
42105;BME280;68365;51.472;5.712;2023-04-04T01:03:05;102742.28;;;15.07;100.00
42105;BME280;68365;51.472;5.712;2023-04-04T01:05:34;102738.97;;;15.05;100.00
42105;BME280;68365;51.472;5.712;2023-04-04T01:08:00;102730.44;;;15.03;100.00
42105;BME280;68365;51.472;5.712;2023-04-04T01:10:31;102748.63;;;15.04;100.00
42105;BME280;68365;51.472;5.712;2023-04-04T01:12:57;102730.75;;;15.00;100.00
42105;BME280;68365;51.472;5.712;2023-04-04T01:15:23;102739.28;;;15.02;100.00
42105;BME280;68365;51.472;5.712;2023-04-04T01:17:51;102737.59;;;15.01;100.00
42105;BME280;68365;51.472;5.712;2023-04-04T01:20:24;102723.44;;;14.94;100.00
42105;BME280;68365;51.472;5.712;2023-04-04T01:22:53;102733.50;;;14.98;100.00
42105;BME280;68365;51.472;5.712;2023-04-04T01:25:30;102726.75;;;14.96;100.00
42105;BME280;68365;51.472;5.712;2023-04-04T01:27:59;102724.13;;;14.96;100.00
42105;BME280;68365;51.472;5.712;2023-04-04T01:30:32;102730.19;;;14.96;100.00
42105;BME280;68365;51.472;5.712;2023-04-04T01:33:19;102729.25;;;14.97;100.00
42105;BME280;68365;51.472;5.712;2023-04-04T01:36:18;102720.03;;;14.93;100.00
42105;BME280;68365;51.472;5.712;2023-04-04T01:39:42;102720.97;;;14.92;100.00
42105;BME280;68365;51.472;5.712;2023-04-04T01:42:12;102720.97;;;14.92;100.00
42105;BME280;68365;51.472;5.712;2023-04-04T01:44:38;102713.41;;;14.89;100.00
42105;BME280;68365;51.472;5.712;2023-04-04T01:47:05;102716.03;;;14.89;100.00
42105;BME280;68365;51.472;5.712;2023-04-04T01:49:34;102707.34;;;14.88;100.00
42105;BME280;68365;51.472;5.712;2023-04-04T01:52:00;102708.31;;;14.87;100.00
42105;BME280;68365;51.472;5.712;2023-04-04T01:54:26;102712.72;;;14.87;100.00
42105;BME280;68365;51.472;5.712;2023-04-04T01:56:56;102698.81;;;14.86;100.00
42105;BME280;68365;51.472;5.712;2023-04-04T01:59:22;102705.16;;;14.84;100.00
42105;BME280;68365;51.472;5.712;2023-04-04T02:01:48;102709.56;;;14.83;100.00
42105;BME280;68365;51.472;5.712;2023-04-04T02:04:14;102694.13;;;14.80;100.00
42105;BME280;68365;51.472;5.712;2023-04-04T02:06:40;102704.75;;;14.79;100.00
42105;BME280;68365;51.472;5.712;2023-04-04T02:09:06;102707.22;;;14.80;100.00
42105;BME280;68365;51.472;5.712;2023-04-04T02:11:32;102707.22;;;14.80;100.00
42105;BME280;68365;51.472;5.712;2023-04-04T02:13:58;102703.78;;;14.80;100.00
42105;BME280;68365;51.472;5.712;2023-04-04T02:16:24;102709.00;;;14.80;100.00
42105;BME280;68365;51.472;5.712;2023-04-04T02:18:50;102703.38;;;14.75;100.00
42105;BME280;68365;51.472;5.712;2023-04-04T02:21:16;102707.38;;;14.79;100.00
42105;BME280;68365;51.472;5.712;2023-04-04T02:23:41;102710.94;;;14.78;100.00
42105;BME280;68365;51.472;5.712;2023-04-04T02:26:07;102715.59;;;14.74;100.00
42105;BME280;68365;51.472;5.712;2023-04-04T02:28:33;102717.41;;;14.74;100.00
42105;BME280;68365;51.472;5.712;2023-04-04T02:31:00;102710.66;;;14.71;100.00
42105;BME280;68365;51.472;5.712;2023-04-04T02:33:29;102712.59;;;14.69;100.00
42105;BME280;68365;51.472;5.712;2023-04-04T02:35:59;102716.59;;;14.73;100.00
42105;BME280;68365;51.472;5.712;2023-04-04T02:38:26;102708.19;;;14.69;100.00
42105;BME280;68365;51.472;5.712;2023-04-04T02:40:53;102703.78;;;14.70;100.00
42105;BME280;68365;51.472;5.712;2023-04-04T02:43:18;102712.59;;;14.69;100.00
42105;BME280;68365;51.472;5.712;2023-04-04T02:45:47;102704.19;;;14.65;100.00
42105;BME280;68365;51.472;5.712;2023-04-04T02:48:13;102705.88;;;14.66;100.00
42105;BME280;68365;51.472;5.712;2023-04-04T02:50:39;102713.53;;;14.68;100.00
42105;BME280;68365;51.472;5.712;2023-04-04T02:53:05;102712.03;;;14.65;100.00
42105;BME280;68365;51.472;5.712;2023-04-04T02:55:31;102704.47;;;14.62;100.00
42105;BME280;68365;51.472;5.712;2023-04-04T02:57:57;102702.56;;;14.64;100.00
42105;BME280;68365;51.472;5.712;2023-04-04T03:00:23;102709.72;;;14.62;100.00
42105;BME280;68365;51.472;5.712;2023-04-04T03:02:53;102711.34;;;14.63;100.00
42105;BME280;68365;51.472;5.712;2023-04-04T03:05:26;102707.91;;;14.63;100.00
42105;BME280;68365;51.472;5.712;2023-04-04T03:07:56;102702.13;;;14.59;100.00
42105;BME280;68365;51.472;5.712;2023-04-04T03:10:27;102707.34;;;14.59;100.00
42105;BME280;68365;51.472;5.712;2023-04-04T03:12:57;102712.31;;;14.62;100.00
42105;BME280;68365;51.472;5.712;2023-04-04T03:15:23;102708.19;;;14.60;100.00
42105;BME280;68365;51.472;5.712;2023-04-04T03:17:50;102709.84;;;14.61;100.00
42105;BME280;68365;51.472;5.712;2023-04-04T03:20:16;102709.03;;;14.60;100.00
42105;BME280;68365;51.472;5.712;2023-04-04T03:22:42;102691.38;;;14.53;100.00
42105;BME280;68365;51.472;5.712;2023-04-04T03:25:09;102701.31;;;14.59;100.00
42105;BME280;68365;51.472;5.712;2023-04-04T03:27:34;102695.41;;;14.57;100.00
42105;BME280;68365;51.472;5.712;2023-04-04T03:30:01;102694.59;;;14.56;100.00
42105;BME280;68365;51.472;5.712;2023-04-04T03:32:27;102699.66;;;14.58;100.00
42105;BME280;68365;51.472;5.712;2023-04-04T03:34:53;102705.13;;;14.55;100.00
42105;BME280;68365;51.472;5.712;2023-04-04T03:37:19;102705.94;;;14.55;100.00
42105;BME280;68365;51.472;5.712;2023-04-04T03:39:45;102706.81;;;14.56;100.00
42105;BME280;68365;51.472;5.712;2023-04-04T03:42:10;102706.81;;;14.56;100.00
42105;BME280;68365;51.472;5.712;2023-04-04T03:44:40;102701.00;;;14.52;100.00
42105;BME280;68365;51.472;5.712;2023-04-04T03:47:06;102706.50;;;14.49;100.00
42105;BME280;68365;51.472;5.712;2023-04-04T03:49:33;102697.84;;;14.48;100.00
42105;BME280;68365;51.472;5.712;2023-04-04T03:51:59;102698.66;;;14.49;100.00
42105;BME280;68365;51.472;5.712;2023-04-04T03:54:27;102693.56;;;14.47;100.00
42105;BME280;68365;51.472;5.712;2023-04-04T03:56:54;102690.69;;;14.51;100.00
42105;BME280;68365;51.472;5.712;2023-04-04T03:59:20;102696.03;;;14.49;100.00
42105;BME280;68365;51.472;5.712;2023-04-04T04:01:46;102682.56;;;14.44;100.00
42105;BME280;68365;51.472;5.712;2023-04-04T04:04:12;102683.09;;;14.47;100.00
42105;BME280;68365;51.472;5.712;2023-04-04T04:06:38;102676.25;;;14.46;100.00
42105;BME280;68365;51.472;5.712;2023-04-04T04:09:03;102676.38;;;14.45;100.00
42105;BME280;68365;51.472;5.712;2023-04-04T04:11:30;102678.44;;;14.41;100.00
42105;BME280;68365;51.472;5.712;2023-04-04T04:13:55;102688.63;;;14.44;100.00
42105;BME280;68365;51.472;5.712;2023-04-04T04:16:21;102688.06;;;14.41;100.00
42105;BME280;68365;51.472;5.712;2023-04-04T04:18:47;102684.34;;;14.43;100.00
42105;BME280;68365;51.472;5.712;2023-04-04T04:21:13;102688.06;;;14.41;100.00
42105;BME280;68365;51.472;5.712;2023-04-04T04:23:39;102682.16;;;14.39;100.00
42105;BME280;68365;51.472;5.712;2023-04-04T04:26:05;102670.44;;;14.33;100.00
42105;BME280;68365;51.472;5.712;2023-04-04T04:28:31;102673.63;;;14.37;100.00
42105;BME280;68365;51.472;5.712;2023-04-04T04:31:07;102683.13;;;14.38;100.00
42105;BME280;68365;51.472;5.712;2023-04-04T04:33:33;102684.88;;;14.37;100.00
42105;BME280;68365;51.472;5.712;2023-04-04T04:36:03;102682.28;;;14.37;100.00
42105;BME280;68365;51.472;5.712;2023-04-04T04:38:30;102676.66;;;14.32;100.00
42105;BME280;68365;51.472;5.712;2023-04-04T04:40:56;102678.16;;;14.35;100.00
42105;BME280;68365;51.472;5.712;2023-04-04T04:43:22;102686.81;;;14.35;100.00
42105;BME280;68365;51.472;5.712;2023-04-04T04:45:48;102695.63;;;14.34;100.00
42105;BME280;68365;51.472;5.712;2023-04-04T04:48:16;102689.44;;;14.35;100.00
42105;BME280;68365;51.472;5.712;2023-04-04T04:50:46;102679.25;;;14.32;100.00
42105;BME280;68365;51.472;5.712;2023-04-04T04:53:14;102685.31;;;14.33;100.00
42105;BME280;68365;51.472;5.712;2023-04-04T04:55:41;102689.72;;;14.32;100.00
42105;BME280;68365;51.472;5.712;2023-04-04T04:58:11;102678.81;;;14.27;100.00
42105;BME280;68365;51.472;5.712;2023-04-04T05:00:37;102690.66;;;14.31;100.00
42105;BME280;68365;51.472;5.712;2023-04-04T05:03:06;102689.84;;;14.31;100.00
42105;BME280;68365;51.472;5.712;2023-04-04T05:05:35;102690.94;;;14.28;100.00
42105;BME280;68365;51.472;5.712;2023-04-04T05:08:02;102685.97;;;14.25;100.00
42105;BME280;68365;51.472;5.712;2023-04-04T05:10:28;102695.19;;;14.29;100.00
42105;BME280;68365;51.472;5.712;2023-04-04T05:12:55;102696.28;;;14.26;100.00
42105;BME280;68365;51.472;5.712;2023-04-04T05:15:20;102699.88;;;14.25;100.00
42105;BME280;68365;51.472;5.712;2023-04-04T05:17:46;102708.53;;;14.26;100.00
42105;BME280;68365;51.472;5.712;2023-04-04T05:20:13;102714.47;;;14.28;100.00
42105;BME280;68365;51.472;5.712;2023-04-04T05:22:45;102712.09;;;14.25;100.00
42105;BME280;68365;51.472;5.712;2023-04-04T05:25:12;102705.22;;;14.24;100.00
42105;BME280;68365;51.472;5.712;2023-04-04T05:27:39;102711.28;;;14.24;100.00
42105;BME280;68365;51.472;5.712;2023-04-04T05:30:06;102712.09;;;14.25;100.00
42105;BME280;68365;51.472;5.712;2023-04-04T05:32:32;102715.56;;;14.25;100.00
42105;BME280;68365;51.472;5.712;2023-04-04T05:34:59;102713.06;;;14.24;100.00
42105;BME280;68365;51.472;5.712;2023-04-04T05:37:25;102713.06;;;14.24;100.00
42105;BME280;68365;51.472;5.712;2023-04-04T05:39:50;102713.88;;;14.24;100.00
42105;BME280;68365;51.472;5.712;2023-04-04T05:42:17;102706.34;;;14.21;100.00
42105;BME280;68365;51.472;5.712;2023-04-04T05:44:42;102703.56;;;14.23;100.00
42105;BME280;68365;51.472;5.712;2023-04-04T05:47:09;102701.94;;;14.22;100.00
42105;BME280;68365;51.472;5.712;2023-04-04T05:49:35;102714.88;;;14.23;100.00
42105;BME280;68365;51.472;5.712;2023-04-04T05:52:01;102702.34;;;14.17;100.00
42105;BME280;68365;51.472;5.712;2023-04-04T05:54:27;102718.28;;;14.24;100.00
42105;BME280;68365;51.472;5.712;2023-04-04T05:56:53;102727.94;;;14.23;100.00
42105;BME280;68365;51.472;5.712;2023-04-04T05:59:18;102723.53;;;14.24;100.00
42105;BME280;68365;51.472;5.712;2023-04-04T06:01:44;102725.31;;;14.23;100.00
42105;BME280;68365;51.472;5.712;2023-04-04T06:04:10;102732.03;;;14.26;100.00
42105;BME280;68365;51.472;5.712;2023-04-04T06:06:36;102737.97;;;14.28;100.00
42105;BME280;68365;51.472;5.712;2023-04-04T06:09:02;102737.69;;;14.31;100.00
42105;BME280;68365;51.472;5.712;2023-04-04T06:11:28;102734.94;;;14.33;100.00
42105;BME280;68365;51.472;5.712;2023-04-04T06:13:54;102731.38;;;14.34;100.00
42105;BME280;68365;51.472;5.712;2023-04-04T06:16:21;102730.41;;;14.35;100.00
42105;BME280;68365;51.472;5.712;2023-04-04T06:18:47;102731.22;;;14.35;100.00
42105;BME280;68365;51.472;5.712;2023-04-04T06:21:13;102736.19;;;14.38;100.00
42105;BME280;68365;51.472;5.712;2023-04-04T06:23:39;102722.31;;;14.38;100.00
42105;BME280;68365;51.472;5.712;2023-04-04T06:26:06;102733.47;;;14.40;100.00
42105;BME280;68365;51.472;5.712;2023-04-04T06:28:33;102728.91;;;14.42;100.00
42105;BME280;68365;51.472;5.712;2023-04-04T06:30:58;102727.94;;;14.43;100.00
42105;BME280;68365;51.472;5.712;2023-04-04T06:33:24;102743.50;;;14.44;100.00
42105;BME280;68365;51.472;5.712;2023-04-04T06:35:50;102740.19;;;14.42;100.00
42105;BME280;68365;51.472;5.712;2023-04-04T06:38:16;102739.91;;;14.45;100.00
42105;BME280;68365;51.472;5.712;2023-04-04T06:40:42;102754.34;;;14.49;100.00
42105;BME280;68365;51.472;5.712;2023-04-04T06:43:08;102748.59;;;14.46;100.00
42105;BME280;68365;51.472;5.712;2023-04-04T06:45:34;102752.44;;;14.52;100.00
42105;BME280;68365;51.472;5.712;2023-04-04T06:48:01;102754.69;;;14.56;100.00
42105;BME280;68365;51.472;5.712;2023-04-04T06:50:29;102748.63;;;14.56;100.00
42105;BME280;68365;51.472;5.712;2023-04-04T06:52:59;102753.72;;;14.57;100.00
42105;BME280;68365;51.472;5.712;2023-04-04T06:55:26;102753.59;;;14.59;100.00
42105;BME280;68365;51.472;5.712;2023-04-04T06:57:53;102754.53;;;14.58;100.00
42105;BME280;68365;51.472;5.712;2023-04-04T07:00:20;102766.53;;;14.60;100.00
42105;BME280;68365;51.472;5.712;2023-04-04T07:02:46;102763.06;;;14.60;100.00
42105;BME280;68365;51.472;5.712;2023-04-04T07:05:12;102759.22;;;14.64;100.00
42105;BME280;68365;51.472;5.712;2023-04-04T07:07:38;102752.47;;;14.61;100.00
42105;BME280;68365;51.472;5.712;2023-04-04T07:10:05;102753.03;;;14.65;100.00
42105;BME280;68365;51.472;5.712;2023-04-04T07:12:31;102752.75;;;14.68;100.00
42105;BME280;68365;51.472;5.712;2023-04-04T07:14:57;102751.81;;;14.69;100.00
42105;BME280;68365;51.472;5.712;2023-04-04T07:17:23;102751.69;;;14.71;100.00
42105;BME280;68365;51.472;5.712;2023-04-04T07:19:49;102751.50;;;14.72;100.00
42105;BME280;68365;51.472;5.712;2023-04-04T07:22:15;102752.19;;;14.74;100.00
42105;BME280;68365;51.472;5.712;2023-04-04T07:24:41;102741.91;;;14.73;100.00
42105;BME280;68365;51.472;5.712;2023-04-04T07:27:07;102745.06;;;14.76;100.00
42105;BME280;68365;51.472;5.712;2023-04-04T07:29:33;102741.34;;;14.79;100.00
42105;BME280;68365;51.472;5.712;2023-04-04T07:31:59;102744.78;;;14.79;100.00
42105;BME280;68365;51.472;5.712;2023-04-04T07:34:25;102756.19;;;14.78;100.00
42105;BME280;68365;51.472;5.712;2023-04-04T07:36:51;102755.25;;;14.79;100.00
42105;BME280;68365;51.472;5.712;2023-04-04T07:39:18;102748.78;;;14.83;100.00
42105;BME280;68365;51.472;5.712;2023-04-04T07:41:44;102740.38;;;14.80;100.00
42105;BME280;68365;51.472;5.712;2023-04-04T07:44:10;102747.81;;;14.84;100.00
42105;BME280;68365;51.472;5.712;2023-04-04T07:46:36;102740.38;;;14.80;100.00
42105;BME280;68365;51.472;5.712;2023-04-04T07:49:02;102740.13;;;14.83;100.00
42105;BME280;68365;51.472;5.712;2023-04-04T07:51:28;102749.19;;;14.88;100.00
42105;BME280;68365;51.472;5.712;2023-04-04T07:53:55;102750.56;;;14.93;100.00
42105;BME280;68365;51.472;5.712;2023-04-04T07:56:22;102739.56;;;14.89;100.00
42105;BME280;68365;51.472;5.712;2023-04-04T07:58:47;102737.63;;;14.91;100.00
42105;BME280;68365;51.472;5.712;2023-04-04T08:01:13;102747.69;;;14.96;100.00
42105;BME280;68365;51.472;5.712;2023-04-04T08:03:39;102737.09;;;14.97;100.00
42105;BME280;68365;51.472;5.712;2023-04-04T08:06:05;102742.84;;;15.01;100.00
42105;BME280;68365;51.472;5.712;2023-04-04T08:08:31;102738.84;;;14.97;100.00
42105;BME280;68365;51.472;5.712;2023-04-04T08:10:57;102740.78;;;14.95;100.00
42105;BME280;68365;51.472;5.712;2023-04-04T08:13:23;102751.94;;;14.97;100.00
42105;BME280;68365;51.472;5.712;2023-04-04T08:15:49;102755.09;;;15.00;100.00
42105;BME280;68365;51.472;5.712;2023-04-04T08:18:15;102748.91;;;15.01;100.00
42105;BME280;68365;51.472;5.712;2023-04-04T08:20:41;102754.66;;;15.05;100.00
42105;BME280;68365;51.472;5.712;2023-04-04T08:23:07;102751.94;;;15.06;100.00
42105;BME280;68365;51.472;5.712;2023-04-04T08:25:33;102746.13;;;15.03;100.00
42105;BME280;68365;51.472;5.712;2023-04-04T08:27:59;102751.94;;;15.06;100.00
42105;BME280;68365;51.472;5.712;2023-04-04T08:30:28;102755.22;;;15.08;100.00
42105;BME280;68365;51.472;5.712;2023-04-04T08:32:54;102751.78;;;15.08;100.00
42105;BME280;68365;51.472;5.712;2023-04-04T08:35:20;102751.94;;;15.06;100.00
42105;BME280;68365;51.472;5.712;2023-04-04T08:37:46;102744.75;;;15.08;100.00
42105;BME280;68365;51.472;5.712;2023-04-04T08:40:13;102744.50;;;15.12;100.00
42105;BME280;68365;51.472;5.712;2023-04-04T08:42:40;102737.06;;;15.07;100.00
42105;BME280;68365;51.472;5.712;2023-04-04T08:45:11;102746.94;;;15.13;100.00
42105;BME280;68365;51.472;5.712;2023-04-04T08:47:37;102742.56;;;15.14;100.00
42105;BME280;68365;51.472;5.712;2023-04-04T08:50:06;102745.03;;;15.15;100.00
42105;BME280;68365;51.472;5.712;2023-04-04T08:52:33;102731.25;;;15.13;100.00
42105;BME280;68365;51.472;5.712;2023-04-04T08:57:35;102744.75;;;15.18;100.00
42105;BME280;68365;51.472;5.712;2023-04-04T09:00:01;102741.84;;;15.21;100.00
42105;BME280;68365;51.472;5.712;2023-04-04T09:02:56;102739.41;;;15.20;100.00
42105;BME280;68365;51.472;5.712;2023-04-04T09:05:25;102734.16;;;15.20;100.00
42105;BME280;68365;51.472;5.712;2023-04-04T09:07:53;102734.28;;;15.18;100.00
42105;BME280;68365;51.472;5.712;2023-04-04T09:10:20;102736.09;;;15.18;100.00
42105;BME280;68365;51.472;5.712;2023-04-04T09:12:47;102740.91;;;15.22;100.00
42105;BME280;68365;51.472;5.712;2023-04-04T09:15:15;102741.16;;;15.19;100.00
42105;BME280;68365;51.472;5.712;2023-04-04T09:17:41;102740.78;;;15.14;100.00
42105;BME280;68365;51.472;5.712;2023-04-04T09:20:47;102736.78;;;15.10;100.00
42105;BME280;68365;51.472;5.712;2023-04-04T09:23:18;102742.97;;;15.09;100.00
42105;BME280;68365;51.472;5.712;2023-04-04T09:25:56;102742.03;;;15.10;100.00
42105;BME280;68365;51.472;5.712;2023-04-04T09:28:23;102738.16;;;15.14;100.00
42105;BME280;68365;51.472;5.712;2023-04-04T09:30:50;102736.09;;;15.18;100.00
42105;BME280;68365;51.472;5.712;2023-04-04T09:33:23;102727.00;;;15.12;100.00
42105;BME280;68365;51.472;5.712;2023-04-04T09:36:11;102732.94;;;15.14;100.00
42105;BME280;68365;51.472;5.712;2023-04-04T09:38:52;102724.25;;;15.14;100.00
42105;BME280;68365;51.472;5.712;2023-04-04T09:41:27;102728.94;;;15.10;100.00
42105;BME280;68365;51.472;5.712;2023-04-04T09:44:14;102721.78;;;15.12;100.00
42105;BME280;68365;51.472;5.712;2023-04-04T09:46:50;102724.78;;;15.17;100.00
42105;BME280;68365;51.472;5.712;2023-04-04T09:49:20;102730.31;;;15.24;100.00
42105;BME280;68365;51.472;5.712;2023-04-04T09:51:53;102711.69;;;15.17;100.00
42105;BME280;68365;51.472;5.712;2023-04-04T09:55:01;102715.16;;;15.18;100.00
42105;BME280;68365;51.472;5.712;2023-04-04T09:57:40;102713.63;;;15.15;100.00
42105;BME280;68365;51.472;5.712;2023-04-04T10:00:17;102715.31;;;15.16;100.00
42105;BME280;68365;51.472;5.712;2023-04-04T10:02:47;102718.72;;;15.17;100.00
42105;BME280;68365;51.472;5.712;2023-04-04T10:05:19;102717.91;;;15.16;100.00
42105;BME280;68365;51.472;5.712;2023-04-04T10:10:57;102719.66;;;15.25;100.00
42105;BME280;68365;51.472;5.712;2023-04-04T10:13:39;102715.41;;;15.24;100.00
42105;BME280;68365;51.472;5.712;2023-04-04T10:19:11;102707.03;;;15.21;100.00
42105;BME280;68365;51.472;5.712;2023-04-04T10:21:38;102705.53;;;15.18;100.00
42105;BME280;68365;51.472;5.712;2023-04-04T10:24:10;102698.91;;;15.14;100.00
42105;BME280;68365;51.472;5.712;2023-04-04T10:26:44;102699.19;;;15.11;100.00
42105;BME280;68365;51.472;5.712;2023-04-04T10:29:10;102704.84;;;15.16;100.00
42105;BME280;68365;51.472;5.712;2023-04-04T10:32:05;102703.16;;;15.15;100.00
42105;BME280;68365;51.472;5.712;2023-04-04T10:34:59;102705.91;;;15.23;100.00
42105;BME280;68365;51.472;5.712;2023-04-04T10:40:58;102700.00;;;15.21;100.00
42105;BME280;68365;51.472;5.712;2023-04-04T10:43:26;102694.50;;;15.24;100.00
42105;BME280;68365;51.472;5.712;2023-04-04T10:46:10;102697.25;;;15.23;100.00
42105;BME280;68365;51.472;5.712;2023-04-04T10:53:13;102695.41;;;15.33;100.00
42105;BME280;68365;51.472;5.712;2023-04-04T10:56:04;102682.91;;;15.27;100.00
42105;BME280;68365;51.472;5.712;2023-04-04T11:02:58;102673.00;;;15.31;100.00
42105;BME280;68365;51.472;5.712;2023-04-04T11:05:39;102661.03;;;15.28;100.00
42105;BME280;68365;51.472;5.712;2023-04-04T11:16:06;102661.94;;;15.37;100.00
42105;BME280;68365;51.472;5.712;2023-04-04T11:18:46;102651.91;;;15.32;100.00
42105;BME280;68365;51.472;5.712;2023-04-04T11:25:37;102647.38;;;15.34;100.00
42105;BME280;68365;51.472;5.712;2023-04-04T11:29:07;102648.06;;;15.36;100.00
42105;BME280;68365;51.472;5.712;2023-04-04T11:31:47;102644.19;;;15.40;100.00
42105;BME280;68365;51.472;5.712;2023-04-04T11:35:09;102639.75;;;15.41;100.00
42105;BME280;68365;51.472;5.712;2023-04-04T11:51:41;102629.94;;;15.53;100.00
42105;BME280;68365;51.472;5.712;2023-04-04T12:13:10;102615.41;;;15.40;100.00
42105;BME280;68365;51.472;5.712;2023-04-04T12:15:47;102610.00;;;15.42;100.00
42105;BME280;68365;51.472;5.712;2023-04-04T12:18:21;102604.75;;;15.42;100.00
42105;BME280;68365;51.472;5.712;2023-04-04T12:20:57;102601.47;;;15.40;100.00
42105;BME280;68365;51.472;5.712;2023-04-04T12:23:26;102596.50;;;15.46;100.00
42105;BME280;68365;51.472;5.712;2023-04-04T12:26:27;102598.34;;;15.54;100.00
42105;BME280;68365;51.472;5.712;2023-04-04T12:28:57;102601.66;;;15.56;100.00
42105;BME280;68365;51.472;5.712;2023-04-04T12:31:30;102593.72;;;15.48;100.00
42105;BME280;68365;51.472;5.712;2023-04-04T12:33:57;102580.63;;;15.48;100.00
42105;BME280;68365;51.472;5.712;2023-04-04T12:37:08;102585.28;;;15.54;100.00
42105;BME280;68365;51.472;5.712;2023-04-04T12:44:00;102563.50;;;15.54;100.00
42105;BME280;68365;51.472;5.712;2023-04-04T12:46:27;102567.13;;;15.53;100.00
42105;BME280;68365;51.472;5.712;2023-04-04T12:49:02;102566.13;;;15.54;100.00
42105;BME280;68365;51.472;5.712;2023-04-04T12:59:40;102553.50;;;15.49;100.00
42105;BME280;68365;51.472;5.712;2023-04-04T13:06:21;102551.25;;;15.54;100.00
42105;BME280;68365;51.472;5.712;2023-04-04T13:08:53;102542.88;;;15.51;100.00
42105;BME280;68365;51.472;5.712;2023-04-04T13:11:22;102535.47;;;15.46;100.00
42105;BME280;68365;51.472;5.712;2023-04-04T13:14:02;102529.25;;;15.47;100.00
42105;BME280;68365;51.472;5.712;2023-04-04T13:16:35;102540.28;;;15.51;100.00
42105;BME280;68365;51.472;5.712;2023-04-04T13:19:05;102531.28;;;15.53;100.00
42105;BME280;68365;51.472;5.712;2023-04-04T13:32:47;102510.88;;;15.57;100.00
42105;BME280;68365;51.472;5.712;2023-04-04T13:35:16;102505.72;;;15.47;100.00
42105;BME280;68365;51.472;5.712;2023-04-04T13:37:50;102507.59;;;15.55;100.00
42105;BME280;68365;51.472;5.712;2023-04-04T13:40:27;102492.63;;;15.47;100.00
42105;BME280;68365;51.472;5.712;2023-04-04T13:42:53;102488.88;;;15.49;100.00
42105;BME280;68365;51.472;5.712;2023-04-04T13:45:22;102491.22;;;15.53;100.00
42105;BME280;68365;51.472;5.712;2023-04-04T13:47:48;102492.84;;;15.54;100.00
42105;BME280;68365;51.472;5.712;2023-04-04T13:50:17;102495.47;;;15.54;100.00
42105;BME280;68365;51.472;5.712;2023-04-04T13:52:43;102493.97;;;15.51;100.00
42105;BME280;68365;51.472;5.712;2023-04-04T13:55:15;102486.81;;;15.53;100.00
42105;BME280;68365;51.472;5.712;2023-04-04T13:58:20;102491.72;;;15.56;100.00
42105;BME280;68365;51.472;5.712;2023-04-04T14:00:50;102488.59;;;15.53;100.00
42105;BME280;68365;51.472;5.712;2023-04-04T14:03:19;102486.13;;;15.51;100.00
42105;BME280;68365;51.472;5.712;2023-04-04T14:05:46;102479.16;;;15.60;100.00
42105;BME280;68365;51.472;5.712;2023-04-04T14:08:11;102480.16;;;15.59;100.00
42105;BME280;68365;51.472;5.712;2023-04-04T14:10:43;102473.56;;;15.55;100.00
42105;BME280;68365;51.472;5.712;2023-04-04T14:13:12;102471.16;;;15.61;100.00
42105;BME280;68365;51.472;5.712;2023-04-04T14:15:38;102459.56;;;15.64;100.00
42105;BME280;68365;51.472;5.712;2023-04-04T14:18:07;102463.19;;;15.63;100.00
42105;BME280;68365;51.472;5.712;2023-04-04T14:20:33;102467.88;;;15.59;100.00
42105;BME280;68365;51.472;5.712;2023-04-04T14:22:59;102469.09;;;15.65;100.00
42105;BME280;68365;51.472;5.712;2023-04-04T14:25:33;102474.59;;;15.62;100.00
42105;BME280;68365;51.472;5.712;2023-04-04T14:27:59;102471.44;;;15.58;100.00